Norway House Airport
CYNE : rendu visible

Aérodrome :











RETROUVEZ-NOUS SUR...

 
LOGIN :

S'inscrire | Disclaimer

   EN    FR    IT 

 









Légende :    VFR   VFR Marginal   IFR   IFR Intensif   IFR Très Intensif
Visi : 
Plafond : 
>= 8 km
>= 3000ft
5 à 8 km
1000 à 3000 ft
1500m à 5 km
500 à 1000 ft
800 à 1500m
200 à 500 ft
< 800m
< 200 ft
Symboles :   Orages  Brouillard  Fortes neiges  Fortes précipitations  Vent > 20 kt






- Altitude de l'aérodrome : 734 ft
- Code IATA : YNE


CYNE - Norway House

DERNIER METAR :
  • 212300Z AUTO 22005KT 9SM FEW220 M10/M12 A2944 RMK SLP992

METARs EXPIRÉS :
  • 212200Z AUTO 21008KT 9SM BKN200 BKN220 M10/M11 A2945 RMK SLP993
  • 212100Z AUTO 21007KT 9SM CLR M09/M11 A2945 RMK SLP993

TAF TAF CYNE
Valide du 21 à 19h jusqu'au 22 à 07h UTC


211840Z 2119/2207 18008KT P6SM SCT180
FM220200 24008KT P6SM -SN OVC025
TEMPO 2202/2207 3SM -SN SCT009 OVC015 RMK FCST BASED ON AUTO OBS. NXT FCST BY 220100Z



MET'MAP, la Météo Aéronautique d'un coup d'oeil ! - Copyright ORBIFLY Décembre 2007 - Disclaimer

ORBIFLY MET'MAP TEAM :

Programmation & Développement : Alexandra Zaïnal
Sur une idée originale de : Baudouin d'Aumeries
Assistance à la programmation : Marc-Olivier Méhu
Soutien technique & logistique : Manuel Goepfert

Contact : metmap@orbifly.com




SOURCES & CREDITS :

   NOAA       Earth
Advisory